^^
Datos históricos de la estación: Murcia-Puente Tocinos
Diario Informe para Mayo 17, 2021 Unidades:  Métrico    Ingés   Ambas
Diario Semanal Mensual Anual
  Máxima: Mínima: Promedio:
Temperatura: 27.6 °C 18.3 °C 23.5 °C
Punto de rocio: 16 °C 9.2 °C 13.5 °C
Humedad: 81% 35% 55%
Velocidad viento: 23.7km/h 4.7km/h 11.9km/h
Racha viento: 48.3km/h - -
Viento- - SE
Presión: 1019.4 hPa 1010.8 hPa -
Precipitación: 0.0 mm    
 
 
Tabla de datos para Mayo 17, 2021
Hora Temperatura Punto de rocio Presión Viento Velocidad viento Racha viento Humedad Intensidad lluvia(por hora) Nubes
00:04 25.8 °C 9.2 °C 1010.8 hPa SSO 7.6 km/h 13.7 km/h 35% 0.0 mm
00:09 25.8 °C 9.2 °C 1010.8 hPa Sur 8 km/h 14.5 km/h 35.2% 0.0 mm
00:14 25.7 °C 9.5 °C 1010.8 hPa Sur 8.4 km/h 13 km/h 36% 0.0 mm
00:19 25.6 °C 9.4 °C 1010.8 hPa SSO 8.4 km/h 11.1 km/h 36% 0.0 mm
00:24 25.6 °C 9.4 °C 1010.8 hPa SO 8.4 km/h 11.9 km/h 36% 0.0 mm
00:29 25.5 °C 9.5 °C 1010.9 hPa SSO 7.4 km/h 11.3 km/h 36.6% 0.0 mm
00:34 25.4 °C 9.7 °C 1010.9 hPa SO 6.5 km/h 11.3 km/h 37% 0.0 mm
00:39 25.4 °C 9.7 °C 1010.9 hPa SO 6.1 km/h 9.7 km/h 37% 0.0 mm
00:44 25.3 °C 9.6 °C 1010.9 hPa SO 5.8 km/h 9.3 km/h 37% 0.0 mm
00:49 25.3 °C 9.5 °C 1010.9 hPa Sur 5.4 km/h 9.7 km/h 37% 0.0 mm
00:54 25.1 °C 9.8 °C 1010.9 hPa ESE 5 km/h 11.1 km/h 38.2% 0.0 mm
00:59 24.6 °C 9.9 °C 1011.0 hPa SE 5.8 km/h 11.3 km/h 39.4% 0.0 mm
01:04 24.3 °C 9.9 °C 1011.0 hPa SSE 6.5 km/h 11.3 km/h 40% 0.0 mm
01:09 24.3 °C 9.8 °C 1011.0 hPa Sur 6.5 km/h 9.7 km/h 40% 0.0 mm
01:14 24.3 °C 9.8 °C 1011.0 hPa SSO 6.5 km/h 11.1 km/h 39.8% 0.0 mm
01:19 24.4 °C 9.6 °C 1011.0 hPa SSO 6.5 km/h 11.3 km/h 39.1% 0.0 mm
01:24 24.6 °C 9.7 °C 1011.0 hPa SO 6.5 km/h 9.7 km/h 39% 0.0 mm
01:29 24.6 °C 9.7 °C 1011.1 hPa Sur 6.2 km/h 9.7 km/h 39% 0.0 mm
01:30 24.6 °C 9.7 °C 1011.1 hPa Sur 5.7 km/h 9.7 km/h 39% 0.0 mm
01:39 24.6 °C 9.9 °C 1011.1 hPa SSE 6.1 km/h 9.7 km/h 39.6% 0.0 mm
01:44 24.4 °C 10 °C 1011.1 hPa SE 6.5 km/h 11.9 km/h 40% 0.0 mm
01:49 24.3 °C 9.8 °C 1011.1 hPa SE 7.4 km/h 13 km/h 40% 0.0 mm
01:54 24.3 °C 9.6 °C 1011.1 hPa SE 8.4 km/h 12.9 km/h 39.3% 0.0 mm
01:59 24.6 °C 9.6 °C 1011.1 hPa SE 8.5 km/h 13 km/h 38.8% 0.0 mm
02:04 24.8 °C 9.5 °C 1011.1 hPa SSE 8.7 km/h 13 km/h 38% 0.0 mm
02:09 25.1 °C 9.7 °C 1011.1 hPa SSE 7.6 km/h 11.3 km/h 38% 0.0 mm
02:14 25.2 °C 9.7 °C 1011.2 hPa Sur 6.5 km/h 11.1 km/h 37.5% 0.0 mm
02:19 25.4 °C 9.6 °C 1011.2 hPa SSE 6.1 km/h 11.3 km/h 37% 0.0 mm
02:24 25.5 °C 9.7 °C 1011.2 hPa SO 5.8 km/h 8 km/h 37% 0.0 mm
02:29 25.6 °C 9.8 °C 1011.2 hPa Sur 5.3 km/h 8.4 km/h 37% 0.0 mm
02:34 25.4 °C 9.7 °C 1011.1 hPa Sur 4.7 km/h 10 km/h 37% 0.0 mm
02:39 25.2 °C 9.5 °C 1011.1 hPa Sur 6 km/h 11.1 km/h 37.1% 0.0 mm
02:44 25.2 °C 9.7 °C 1011.2 hPa SSO 7.6 km/h 13 km/h 37.5% 0.0 mm
02:49 25.6 °C 9.8 °C 1011.2 hPa SSO 7.6 km/h 13 km/h 37% 0.0 mm
02:54 26 °C 9.9 °C 1011.2 hPa SSO 7.6 km/h 13 km/h 36.3% 0.0 mm
02:59 26.3 °C 10.1 °C 1011.2 hPa SSO 8 km/h 13.7 km/h 36% 0.0 mm
03:04 26.4 °C 10.1 °C 1011.2 hPa OSO 8.4 km/h 14.5 km/h 36% 0.0 mm
03:09 26.4 °C 10.1 °C 1011.2 hPa Oeste 7.4 km/h 11.9 km/h 36% 0.0 mm
03:14 26.4 °C 10.1 °C 1011.2 hPa SO 6.5 km/h 11.3 km/h 35.8% 0.0 mm
03:19 26.3 °C 10.1 °C 1011.2 hPa OSO 5.7 km/h 11.1 km/h 36% 0.0 mm
03:24 26.1 °C 10 °C 1011.2 hPa Oeste 5 km/h 11.3 km/h 36.5% 0.0 mm
03:29 25.8 °C 10 °C 1011.2 hPa Oeste 6 km/h 11.3 km/h 37% 0.0 mm
03:34 25.7 °C 10 °C 1011.2 hPa Oeste 6.9 km/h 9.5 km/h 37.3% 0.0 mm
03:39 25.4 °C 10.1 °C 1011.2 hPa OSO 6 km/h 9.7 km/h 38% 0.0 mm
03:44 25.3 °C 9.9 °C 1011.2 hPa Oeste 5 km/h 13 km/h 38% 0.0 mm
03:49 25.3 °C 9.9 °C 1011.2 hPa OSO 5.4 km/h 12.9 km/h 38% 0.0 mm
03:54 25.2 °C 9.9 °C 1011.2 hPa SO 5.8 km/h 13 km/h 38% 0.0 mm
03:59 25.1 °C 10 °C 1011.2 hPa SO 6.4 km/h 12.9 km/h 38.6% 0.0 mm
04:04 25 °C 10.1 °C 1011.2 hPa SO 6.9 km/h 11.3 km/h 39% 0.0 mm
04:09 25 °C 10.1 °C 1011.2 hPa SO 6.9 km/h 11.3 km/h 39% 0.0 mm
04:14 25 °C 10.1 °C 1011.3 hPa SSO 6.9 km/h 11.3 km/h 39% 0.0 mm
04:19 25 °C 10.1 °C 1011.3 hPa SSO 6.4 km/h 9.7 km/h 39% 0.0 mm
04:24 24.8 °C 9.9 °C 1011.3 hPa SSE 5.8 km/h 11.1 km/h 38.8% 0.0 mm
04:29 24.7 °C 9.8 °C 1011.3 hPa Sur 6.4 km/h 13 km/h 39% 0.0 mm
04:34 24.7 °C 9.9 °C 1011.3 hPa OSO 6.9 km/h 12.9 km/h 39.3% 0.0 mm
04:39 24.7 °C 9.9 °C 1011.3 hPa SSO 6.4 km/h 13 km/h 39% 0.0 mm
04:44 24.8 °C 10 °C 1011.5 hPa SO 5.8 km/h 13.7 km/h 39.2% 0.0 mm
04:49 24.8 °C 9.9 °C 1011.5 hPa Sur 6.1 km/h 14.5 km/h 39% 0.0 mm
04:54 24.8 °C 10 °C 1011.5 hPa Sur 6.5 km/h 11.3 km/h 39.3% 0.0 mm
04:59 24.8 °C 10.2 °C 1011.6 hPa SSO 6.1 km/h 11.3 km/h 40% 0.0 mm
05:04 24.8 °C 10.3 °C 1011.6 hPa SSO 5.8 km/h 10 km/h 40% 0.0 mm
05:09 24.7 °C 10.2 °C 1011.6 hPa SSO 5.8 km/h 9.7 km/h 40% 0.0 mm
05:14 24.6 °C 9.9 °C 1011.7 hPa SSO 5.8 km/h 13 km/h 39.5% 0.0 mm
05:19 24.4 °C 9.5 °C 1011.7 hPa SSO 6.3 km/h 13 km/h 38.8% 0.0 mm
05:24 24.2 °C 9.5 °C 1011.7 hPa SSO 6.9 km/h 14.8 km/h 39.4% 0.0 mm
05:29 24.2 °C 9.7 °C 1011.7 hPa SSO 8.3 km/h 14.8 km/h 40% 0.0 mm
05:34 24.2 °C 10.1 °C 1011.7 hPa SO 9.5 km/h 17.2 km/h 40.9% 0.0 mm
05:39 24.2 °C 10.7 °C 1011.7 hPa SO 10.4 km/h 18.5 km/h 42.5% 0.0 mm
05:44 24.2 °C 10.8 °C 1011.8 hPa SO 11.1 km/h 20.4 km/h 43% 0.0 mm
05:49 24.2 °C 10.9 °C 1011.8 hPa SO 12 km/h 20.9 km/h 43.3% 0.0 mm
05:54 24.1 °C 11.3 °C 1011.8 hPa SO 13 km/h 19.3 km/h 44.7% 0.0 mm
05:59 24.1 °C 11.8 °C 1012.0 hPa OSO 12.4 km/h 19.3 km/h 46% 0.0 mm
06:04 24.1 °C 12.1 °C 1012.0 hPa SO 11.9 km/h 22.5 km/h 47% 0.0 mm
06:09 24.1 °C 12.1 °C 1012.0 hPa OSO 12.4 km/h 22.5 km/h 47% 0.0 mm
06:14 24.1 °C 12.2 °C 1012.2 hPa OSO 13 km/h 21.7 km/h 47.5% 0.0 mm
06:19 24 °C 12.6 °C 1012.2 hPa OSO 12.5 km/h 22.5 km/h 48.9% 0.0 mm
06:24 24 °C 12.6 °C 1012.2 hPa OSO 11.9 km/h 16.4 km/h 49.2% 0.0 mm
06:29 23.9 °C 12.8 °C 1012.3 hPa OSO 10.9 km/h 22.2 km/h 50% 0.0 mm
06:34 23.9 °C 12.8 °C 1012.3 hPa OSO 10 km/h 22.5 km/h 50% 0.0 mm
06:39 23.9 °C 13.1 °C 1012.3 hPa OSO 10.5 km/h 18.5 km/h 50.7% 0.0 mm
06:44 23.9 °C 13.2 °C 1012.6 hPa OSO 11.1 km/h 19 km/h 51% 0.0 mm
06:49 23.9 °C 13.2 °C 1012.6 hPa OSO 10.7 km/h 20.4 km/h 51% 0.0 mm
06:54 23.9 °C 13.3 °C 1012.6 hPa OSO 10.3 km/h 20.9 km/h 51.5% 0.0 mm
06:59 23.8 °C 13.4 °C 1012.7 hPa OSO 10.3 km/h 19.3 km/h 52% 0.0 mm
07:04 23.8 °C 13.6 °C 1012.7 hPa OSO 10.3 km/h 18.5 km/h 52.8% 0.0 mm
07:09 23.8 °C 13.7 °C 1012.7 hPa OSO 10.2 km/h 24.1 km/h 53% 0.0 mm
07:14 23.8 °C 13.7 °C 1012.9 hPa OSO 10 km/h 24.1 km/h 53% 0.0 mm
07:19 23.8 °C 13.7 °C 1012.9 hPa OSO 10 km/h 20.4 km/h 53% 0.0 mm
07:24 23.9 °C 13.7 °C 1012.9 hPa OSO 10 km/h 20.9 km/h 53% 0.0 mm
07:29 23.9 °C 13.7 °C 1013.1 hPa OSO 10.5 km/h 20.9 km/h 53% 0.0 mm
07:34 23.9 °C 13.7 °C 1013.1 hPa OSO 11.1 km/h 20.9 km/h 53% 0.0 mm
07:39 23.9 °C 13.9 °C 1013.1 hPa OSO 11.1 km/h 20.9 km/h 53.6% 0.0 mm
07:44 23.9 °C 14.1 °C 1013.1 hPa Oeste 11.1 km/h 21.7 km/h 54% 0.0 mm
07:49 23.9 °C 14 °C 1013.1 hPa Oeste 10.7 km/h 22.5 km/h 54% 0.0 mm
07:54 24 °C 14.1 °C 1013.1 hPa ONO 10.3 km/h 22.5 km/h 54% 0.0 mm
07:59 24.1 °C 14.2 °C 1013.2 hPa ONO 9.3 km/h 14.8 km/h 54% 0.0 mm
08:04 24.2 °C 14.2 °C 1013.2 hPa NNO 8.4 km/h 14.5 km/h 53.7% 0.0 mm
08:09 24.3 °C 14.3 °C 1013.2 hPa NO 6.8 km/h 8 km/h 53.6% 0.0 mm
08:14 24.4 °C 14.2 °C 1013.4 hPa Oeste 5 km/h 16.4 km/h 53% 0.0 mm
08:19 24.4 °C 14.2 °C 1013.4 hPa Oeste 5.4 km/h 20.4 km/h 53% 0.0 mm
08:24 24.4 °C 14.2 °C 1013.4 hPa Oeste 5.8 km/h 24.1 km/h 53% 0.0 mm
08:29 24.4 °C 14.2 °C 1013.6 hPa OSO 8.6 km/h 24.1 km/h 53% 0.0 mm
08:34 24.5 °C 14.3 °C 1013.6 hPa OSO 11.9 km/h 19.3 km/h 53% 0.0 mm
08:39 24.6 °C 14.4 °C 1013.6 hPa Oeste 10.1 km/h 15.6 km/h 53% 0.0 mm
08:44 24.7 °C 14.3 °C 1013.7 hPa Oeste 8.4 km/h 16.1 km/h 52.7% 0.0 mm
08:49 24.7 °C 14.2 °C 1013.7 hPa Oeste 8.4 km/h 20.9 km/h 52% 0.0 mm
08:54 24.8 °C 14.3 °C 1013.7 hPa Oeste 8.4 km/h 20.9 km/h 52% 0.0 mm
08:59 24.9 °C 14.4 °C 1013.8 hPa Oeste 9 km/h 16.7 km/h 52% 0.0 mm
09:04 25 °C 14.4 °C 1013.8 hPa ONO 9.5 km/h 16.7 km/h 51.8% 0.0 mm
09:09 25 °C 14.4 °C 1013.8 hPa ONO 10.3 km/h 22.2 km/h 51.8% 0.0 mm
09:14 25.2 °C 14.4 °C 1013.9 hPa ONO 11.1 km/h 24.1 km/h 51.3% 0.0 mm
09:19 25.2 °C 14.3 °C 1013.9 hPa ONO 11.1 km/h 24.1 km/h 51% 0.0 mm
09:24 25.2 °C 14.3 °C 1013.9 hPa Oeste 11.1 km/h 22.5 km/h 51% 0.0 mm
09:29 25.3 °C 14.4 °C 1014.1 hPa Oeste 12.1 km/h 22.5 km/h 51% 0.0 mm
09:34 25.4 °C 14.3 °C 1014.1 hPa Oeste 13 km/h 24.1 km/h 50.1% 0.0 mm
09:39 25.4 °C 14.3 °C 1014.1 hPa ONO 12.6 km/h 24.1 km/h 50% 0.0 mm
09:44 25.6 °C 14.4 °C 1014.3 hPa Oeste 12.2 km/h 25.9 km/h 50% 0.0 mm
09:49 25.5 °C 14.3 °C 1014.3 hPa Oeste 13.1 km/h 25.7 km/h 50% 0.0 mm
09:54 25.6 °C 14.4 °C 1014.3 hPa Oeste 14 km/h 21.7 km/h 50% 0.0 mm
09:59 25.7 °C 14.5 °C 1014.4 hPa ONO 13 km/h 22.5 km/h 50% 0.0 mm
10:04 25.7 °C 14.3 °C 1014.4 hPa ONO 12.2 km/h 22.5 km/h 49.4% 0.0 mm
10:09 25.8 °C 14.3 °C 1014.4 hPa ONO 12.5 km/h 20.9 km/h 49% 0.0 mm
10:14 26.1 °C 14.4 °C 1014.5 hPa Oeste 13 km/h 22.2 km/h 48.8% 0.0 mm
10:19 26.1 °C 14.2 °C 1014.5 hPa Oeste 13 km/h 22.5 km/h 48% 0.0 mm
10:24 26.2 °C 14.4 °C 1014.5 hPa ONO 13 km/h 20.9 km/h 48.4% 0.0 mm
10:29 26.3 °C 14.4 °C 1014.6 hPa NNO 11.6 km/h 19.3 km/h 48% 0.0 mm
10:34 26.6 °C 14.5 °C 1014.6 hPa ONO 10.3 km/h 19.3 km/h 47.7% 0.0 mm
10:39 26.8 °C 14.5 °C 1014.6 hPa ONO 8.4 km/h 18.5 km/h 47% 0.0 mm
10:44 26.8 °C 14.5 °C 1014.6 hPa NNO 6.5 km/h 19.3 km/h 47% 0.0 mm
10:49 26.8 °C 14.7 °C 1014.5 hPa North 7.5 km/h 16.7 km/h 47.5% 0.0 mm
10:54 26.8 °C 14.8 °C 1014.5 hPa North 8.7 km/h 16.7 km/h 47.7% 0.0 mm
10:59 26.8 °C 14.7 °C 1014.6 hPa NNE 9.4 km/h 18.5 km/h 47.6% 0.0 mm
11:04 26.9 °C 14.8 °C 1014.6 hPa NNO 10 km/h 19.3 km/h 47.4% 0.0 mm
11:09 27.1 °C 14.8 °C 1014.6 hPa NNE 9.7 km/h 22.2 km/h 47% 0.0 mm
11:14 27.1 °C 14.6 °C 1014.6 hPa NNE 9.5 km/h 22.5 km/h 46.5% 0.0 mm
11:19 27.1 °C 14.5 °C 1014.6 hPa NNE 9.9 km/h 19.3 km/h 45.9% 0.0 mm
11:24 27.2 °C 14.6 °C 1014.6 hPa NNE 10.3 km/h 18.5 km/h 46% 0.0 mm
11:29 27.4 °C 14.7 °C 1014.8 hPa NNE 9.4 km/h 19.3 km/h 45.8% 0.0 mm
11:34 27.6 °C 14.6 °C 1014.8 hPa NNE 8.4 km/h 22.5 km/h 45% 0.0 mm
11:39 27.5 °C 14.3 °C 1014.8 hPa NNO 9.7 km/h 24.1 km/h 44.4% 0.0 mm
11:44 27.4 °C 14.8 °C 1014.8 hPa NNE 11.1 km/h 24.5 km/h 46.1% 0.0 mm
11:49 27.3 °C 15.9 °C 1014.8 hPa NE 12 km/h 27.8 km/h 49.8% 0.0 mm
11:54 27.1 °C 15.8 °C 1014.8 hPa NE 13 km/h 27.4 km/h 50.2% 0.0 mm
11:59 26.5 °C 15.8 °C 1015.0 hPa NE 15.2 km/h 34.3 km/h 51.9% 0.0 mm
12:04 26.2 °C 15.8 °C 1015.0 hPa NE 17.2 km/h 33.8 km/h 53% 0.0 mm
12:09 26 °C 15.9 °C 1015.0 hPa NNE 17.2 km/h 30.6 km/h 53.9% 0.0 mm
12:14 25.8 °C 15.9 °C 1015.2 hPa NE 17.2 km/h 34.3 km/h 54.4% 0.0 mm
12:19 25.8 °C 16 °C 1015.2 hPa NNE 17.7 km/h 33.8 km/h 54.5% 0.0 mm
12:24 25.7 °C 16 °C 1015.2 hPa NE 18.4 km/h 32.2 km/h 55% 0.0 mm
12:29 25.7 °C 16 °C 1015.2 hPa NE 18.2 km/h 36.2 km/h 55.2% 0.0 mm
12:34 25.4 °C 15.9 °C 1015.2 hPa NE 18 km/h 37 km/h 55.7% 0.0 mm
12:39 25.2 °C 15.8 °C 1015.2 hPa NNE 19.1 km/h 37 km/h 56% 0.0 mm
12:44 24.8 °C 15.7 °C 1015.4 hPa NE 20.1 km/h 37 km/h 56.9% 0.0 mm
12:49 24.8 °C 15.8 °C 1015.4 hPa NE 21.7 km/h 35.4 km/h 57.2% 0.0 mm
12:54 24.8 °C 15.7 °C 1015.4 hPa NE 23.3 km/h 41.2 km/h 57.1% 0.0 mm
12:59 24.6 °C 15.8 °C 1015.6 hPa NE 22 km/h 41.8 km/h 57.9% 0.0 mm
13:04 24.8 °C 15.6 °C 1015.6 hPa NE 20.9 km/h 38.6 km/h 56.7% 0.0 mm
13:09 24.8 °C 15.7 °C 1015.6 hPa NE 19.7 km/h 38.1 km/h 57% 0.0 mm
13:14 24.6 °C 15.5 °C 1015.6 hPa NE 18.4 km/h 42.6 km/h 57% 0.0 mm
13:19 24.3 °C 15.4 °C 1015.5 hPa NE 20.3 km/h 41.8 km/h 57.7% 0.0 mm
13:24 24.1 °C 15.3 °C 1015.5 hPa NE 22.1 km/h 40.2 km/h 57.9% 0.0 mm
13:29 24.1 °C 15.3 °C 1015.6 hPa NE 22.8 km/h 38.9 km/h 57.8% 0.0 mm
13:34 24.2 °C 15.2 °C 1015.6 hPa NE 23.7 km/h 37 km/h 57.3% 0.0 mm
13:39 24.2 °C 15.4 °C 1015.6 hPa NE 22.8 km/h 37 km/h 58% 0.0 mm
13:44 24.2 °C 15.5 °C 1015.7 hPa NE 22.1 km/h 46.3 km/h 58.2% 0.0 mm
13:49 24.1 °C 15.4 °C 1015.7 hPa NE 22.3 km/h 46.7 km/h 58.3% 0.0 mm
13:54 24.1 °C 15.4 °C 1015.7 hPa NNE 22.5 km/h 38.9 km/h 58.2% 0.0 mm
13:59 23.9 °C 15.3 °C 1015.8 hPa NE 23 km/h 44.4 km/h 58.7% 0.0 mm
14:04 23.7 °C 15.2 °C 1015.8 hPa NE 23.3 km/h 45.1 km/h 59% 0.0 mm
14:09 23.7 °C 15.2 °C 1015.8 hPa NE 22.9 km/h 40.2 km/h 59% 0.0 mm
14:14 23.7 °C 15.2 °C 1015.8 hPa NE 22.5 km/h 39.6 km/h 58.9% 0.0 mm
14:19 23.9 °C 15.1 °C 1015.8 hPa NE 21.7 km/h 41.2 km/h 58.1% 0.0 mm
14:24 23.9 °C 15.1 °C 1015.8 hPa NE 20.9 km/h 41.8 km/h 58% 0.0 mm
14:29 23.9 °C 15.1 °C 1016.0 hPa NE 20.4 km/h 37 km/h 58% 0.0 mm
14:34 23.7 °C 15 °C 1016.0 hPa NE 19.8 km/h 38.9 km/h 58.2% 0.0 mm
14:39 23.7 °C 15.1 °C 1016.0 hPa NE 20.4 km/h 47.3 km/h 58.3% 0.0 mm
14:44 23.6 °C 15.1 °C 1016.1 hPa NE 20.9 km/h 48.3 km/h 59% 0.0 mm
14:49 23.5 °C 15.3 °C 1016.1 hPa NE 21.5 km/h 40.2 km/h 60.1% 0.0 mm
14:54 23.6 °C 15 °C 1016.1 hPa NE 22.1 km/h 43.1 km/h 58.9% 0.0 mm
14:59 23.3 °C 14.9 °C 1016.1 hPa NE 22.3 km/h 43.5 km/h 59.5% 0.0 mm
15:04 23.1 °C 14.9 °C 1016.1 hPa NE 22.5 km/h 37.8 km/h 59.9% 0.0 mm
15:09 23.1 °C 15 °C 1016.1 hPa NE 22.1 km/h 39.6 km/h 60.5% 0.0 mm
15:14 23.1 °C 15 °C 1016.1 hPa NE 21.7 km/h 40.2 km/h 60.4% 0.0 mm
15:19 23.1 °C 15.1 °C 1016.1 hPa NE 21.7 km/h 40.7 km/h 61% 0.0 mm
15:24 23.1 °C 15.2 °C 1016.1 hPa NE 21.7 km/h 40.2 km/h 61.3% 0.0 mm
15:29 22.9 °C 15.2 °C 1016.1 hPa NE 21.9 km/h 46.3 km/h 61.8% 0.0 mm
15:34 22.8 °C 15.4 °C 1016.0 hPa NE 22.1 km/h 46.7 km/h 62.9% 0.0 mm
15:39 22.8 °C 15.1 °C 1016.0 hPa NE 22.3 km/h 37 km/h 61.9% 0.0 mm
15:44 22.9 °C 15.2 °C 1016.0 hPa NNE 22.5 km/h 37.8 km/h 62% 0.0 mm
15:49 22.9 °C 15.4 °C 1016.0 hPa NE 21.4 km/h 37 km/h 62.5% 0.0 mm
15:54 23.1 °C 15.4 °C 1016.0 hPa NE 20.1 km/h 33.8 km/h 62.1% 0.0 mm
15:59 23.2 °C 15.4 °C 1016.3 hPa NE 19.2 km/h 37 km/h 61.4% 0.0 mm
16:04 23.3 °C 15.2 °C 1016.3 hPa NE 18.4 km/h 37 km/h 60.4% 0.0 mm
16:09 23 °C 15 °C 1016.3 hPa NNE 18.7 km/h 40.7 km/h 60.5% 0.0 mm
16:14 22.7 °C 15 °C 1016.4 hPa NE 19 km/h 41.2 km/h 61.7% 0.0 mm
16:19 22.6 °C 15.1 °C 1016.4 hPa NE 20.5 km/h 41.8 km/h 62.7% 0.0 mm
16:24 22.6 °C 15.2 °C 1016.4 hPa NE 22.1 km/h 37 km/h 62.9% 0.0 mm
16:29 22.6 °C 15.2 °C 1016.5 hPa NE 19 km/h 29 km/h 63% 0.0 mm
16:34 22.6 °C 15.2 °C 1016.5 hPa NE 16.1 km/h 32.3 km/h 63.1% 0.0 mm
16:39 22.6 °C 15.2 °C 1016.5 hPa NE 16.6 km/h 33.8 km/h 63.2% 0.0 mm
16:44 22.4 °C 15 °C 1016.5 hPa NE 17.2 km/h 33.8 km/h 63% 0.0 mm
16:49 22.4 °C 15.3 °C 1016.5 hPa NE 16.8 km/h 33.8 km/h 64% 0.0 mm
16:54 22.3 °C 15.2 °C 1016.5 hPa NE 16.4 km/h 31.7 km/h 64% 0.0 mm
16:59 22.1 °C 15.2 °C 1016.7 hPa NE 16.4 km/h 32.2 km/h 65.1% 0.0 mm
17:04 22.2 °C 15.3 °C 1016.7 hPa ENE 16.4 km/h 28.6 km/h 65% 0.0 mm
17:09 22.2 °C 15.2 °C 1016.7 hPa NE 15.3 km/h 34.3 km/h 64.7% 0.0 mm
17:14 22.2 °C 15.2 °C 1016.7 hPa NNE 14 km/h 33.8 km/h 64.5% 0.0 mm
17:19 22.3 °C 15.3 °C 1016.6 hPa NE 15.7 km/h 30.6 km/h 64.4% 0.0 mm
17:24 22.3 °C 15.2 °C 1016.6 hPa NE 17.2 km/h 31.7 km/h 64.2% 0.0 mm
17:29 22.2 °C 15.4 °C 1016.6 hPa NNE 17.6 km/h 32.2 km/h 65.3% 0.0 mm
17:34 22.3 °C 15.2 °C 1016.6 hPa NE 18 km/h 25.9 km/h 64.4% 0.0 mm
17:39 22.2 °C 15.2 °C 1016.6 hPa NE 16.1 km/h 29.6 km/h 64.6% 0.0 mm
17:44 22.1 °C 15.2 °C 1016.8 hPa NNE 14 km/h 33.3 km/h 65.2% 0.0 mm
17:49 21.9 °C 15.1 °C 1016.8 hPa NE 15.7 km/h 33.8 km/h 65.3% 0.0 mm
17:54 21.9 °C 15.2 °C 1016.8 hPa NE 17.2 km/h 27.8 km/h 66% 0.0 mm
17:59 21.7 °C 15.2 °C 1016.8 hPa NE 16.8 km/h 28.2 km/h 66.4% 0.0 mm
18:04 21.7 °C 15.3 °C 1016.8 hPa NE 16.4 km/h 31.5 km/h 67% 0.0 mm
18:09 21.6 °C 15.2 °C 1016.8 hPa NE 15.1 km/h 32.2 km/h 67% 0.0 mm
18:14 21.6 °C 15.2 °C 1017.0 hPa NE 13.7 km/h 29.8 km/h 67% 0.0 mm
18:19 21.4 °C 15.1 °C 1017.0 hPa NE 13.8 km/h 30.6 km/h 67.3% 0.0 mm
18:24 21.3 °C 15.1 °C 1017.0 hPa NE 14 km/h 29.8 km/h 67.7% 0.0 mm
18:29 21.2 °C 15.1 °C 1017.0 hPa NE 14 km/h 30.6 km/h 68% 0.0 mm
18:34 21.2 °C 15 °C 1017.0 hPa NE 14 km/h 28.2 km/h 67.9% 0.0 mm
18:39 21.2 °C 14.8 °C 1017.0 hPa NE 14.4 km/h 27.8 km/h 67% 0.0 mm
18:44 21.3 °C 15 °C 1017.0 hPa NE 14.8 km/h 27.4 km/h 67.3% 0.0 mm
18:49 21.4 °C 15 °C 1017.0 hPa NE 14.4 km/h 25.7 km/h 67.2% 0.0 mm
18:54 21.4 °C 14.8 °C 1017.0 hPa NE 14 km/h 24.5 km/h 66.1% 0.0 mm
18:59 21.3 °C 14.8 °C 1017.0 hPa NNE 14.4 km/h 25.9 km/h 66.7% 0.0 mm
19:04 21.2 °C 14.8 °C 1016.9 hPa NE 14.8 km/h 25.9 km/h 67% 0.0 mm
19:09 21.2 °C 15 °C 1016.9 hPa NE 14 km/h 25.7 km/h 67.6% 0.0 mm
19:14 21.1 °C 14.9 °C 1016.9 hPa NE 13 km/h 24.1 km/h 67.5% 0.0 mm
19:19 21 °C 14.9 °C 1016.9 hPa ENE 13 km/h 24.1 km/h 68.1% 0.0 mm
19:24 20.9 °C 14.8 °C 1016.9 hPa NE 13 km/h 24.1 km/h 68% 0.0 mm
19:29 20.9 °C 14.8 °C 1016.9 hPa NNE 12.4 km/h 22.5 km/h 68% 0.0 mm
19:34 20.9 °C 14.8 °C 1016.8 hPa NE 11.9 km/h 20.9 km/h 68% 0.0 mm
19:39 21 °C 14.7 °C 1016.8 hPa NE 11.5 km/h 22.2 km/h 67.4% 0.0 mm
19:44 21.1 °C 14.8 °C 1017.0 hPa NE 11.1 km/h 25.9 km/h 67.5% 0.0 mm
19:49 20.9 °C 14.8 °C 1017.0 hPa NE 12.3 km/h 25.7 km/h 68% 0.0 mm
19:54 20.9 °C 14.8 °C 1017.0 hPa NNE 13.7 km/h 25.9 km/h 68% 0.0 mm
19:59 20.8 °C 14.8 °C 1017.0 hPa ENE 13.8 km/h 26.2 km/h 68.7% 0.0 mm
20:04 20.7 °C 14.7 °C 1017.0 hPa NE 14 km/h 25.9 km/h 68.3% 0.0 mm
20:09 20.7 °C 14.8 °C 1017.0 hPa NE 13.2 km/h 25.7 km/h 69% 0.0 mm
20:14 20.7 °C 15 °C 1017.1 hPa NE 12.2 km/h 20.9 km/h 69.6% 0.0 mm
20:19 20.7 °C 15 °C 1017.1 hPa NE 12.1 km/h 20.9 km/h 69.7% 0.0 mm
20:24 20.6 °C 14.8 °C 1017.1 hPa NE 11.9 km/h 20.9 km/h 69% 0.0 mm
20:29 20.6 °C 14.7 °C 1017.3 hPa NE 11.5 km/h 20.9 km/h 69% 0.0 mm
20:34 20.6 °C 14.7 °C 1017.3 hPa NE 11.1 km/h 20.9 km/h 69% 0.0 mm
20:39 20.6 °C 14.7 °C 1017.3 hPa NE 10.5 km/h 20.9 km/h 69% 0.0 mm
20:44 20.4 °C 14.7 °C 1017.3 hPa NE 10 km/h 20.9 km/h 69.5% 0.0 mm
20:49 20.3 °C 14.5 °C 1017.3 hPa NNE 11 km/h 20.9 km/h 69% 0.0 mm
20:54 20.3 °C 14.4 °C 1017.3 hPa NE 12.2 km/h 20.9 km/h 69% 0.0 mm
20:59 20.3 °C 14.4 °C 1017.4 hPa NE 11.1 km/h 16.1 km/h 69% 0.0 mm
21:04 20.2 °C 14.6 °C 1017.4 hPa NE 10 km/h 16.7 km/h 70% 0.0 mm
21:09 20.1 °C 14.5 °C 1017.4 hPa NE 10 km/h 17.2 km/h 70% 0.0 mm
21:14 20.1 °C 14.4 °C 1017.4 hPa NE 10 km/h 17.7 km/h 70% 0.0 mm
21:19 20 °C 14.5 °C 1017.4 hPa ENE 8.7 km/h 16.7 km/h 70.8% 0.0 mm
21:24 19.9 °C 14.5 °C 1017.4 hPa NE 7.6 km/h 16.1 km/h 71% 0.0 mm
21:29 19.9 °C 14.5 °C 1017.6 hPa NE 7 km/h 15.6 km/h 71% 0.0 mm
21:34 19.8 °C 14.5 °C 1017.6 hPa NE 6.5 km/h 16.1 km/h 71.5% 0.0 mm
21:39 19.8 °C 14.5 °C 1017.6 hPa NE 7 km/h 15.6 km/h 71.8% 0.0 mm
21:44 19.7 °C 14.5 °C 1017.8 hPa ENE 7.6 km/h 16.1 km/h 72% 0.0 mm
21:49 19.7 °C 14.6 °C 1017.8 hPa ENE 7.3 km/h 14.5 km/h 72.4% 0.0 mm
21:54 19.6 °C 14.6 °C 1017.8 hPa NE 6.9 km/h 11.9 km/h 73% 0.0 mm
21:59 19.5 °C 14.5 °C 1017.9 hPa NE 6.9 km/h 15.6 km/h 73% 0.0 mm
22:04 19.4 °C 14.6 °C 1017.9 hPa ENE 6.9 km/h 16.1 km/h 73.9% 0.0 mm
22:09 19.4 °C 14.7 °C 1017.9 hPa ENE 6.9 km/h 14.5 km/h 74% 0.0 mm
22:14 19.4 °C 14.6 °C 1018.1 hPa ENE 6.9 km/h 13 km/h 74% 0.0 mm
22:19 19.3 °C 14.6 °C 1018.1 hPa NE 6.4 km/h 12.9 km/h 74.1% 0.0 mm
22:24 19.2 °C 14.7 °C 1018.1 hPa NE 5.8 km/h 11.9 km/h 75% 0.0 mm
22:29 19.2 °C 14.7 °C 1018.3 hPa NE 6.1 km/h 11.3 km/h 75% 0.0 mm
22:34 19.2 °C 14.7 °C 1018.3 hPa NNE 6.5 km/h 11.1 km/h 75% 0.0 mm
22:39 19.1 °C 14.7 °C 1018.3 hPa NE 6.1 km/h 11.3 km/h 75.6% 0.0 mm
22:44 19.1 °C 14.7 °C 1018.5 hPa NNE 5.8 km/h 13 km/h 76% 0.0 mm
22:49 19 °C 14.7 °C 1018.5 hPa NE 6.3 km/h 12.9 km/h 76.5% 0.0 mm
22:54 18.9 °C 14.8 °C 1018.5 hPa NE 6.9 km/h 11.3 km/h 77% 0.0 mm
22:59 18.9 °C 14.8 °C 1018.7 hPa NNE 6.7 km/h 12.2 km/h 77% 0.0 mm
23:04 18.8 °C 14.9 °C 1018.7 hPa NE 6.5 km/h 13 km/h 78% 0.0 mm
23:09 18.8 °C 14.9 °C 1018.7 hPa NE 7 km/h 13 km/h 78% 0.0 mm
23:14 18.7 °C 14.8 °C 1019.1 hPa NNE 7.6 km/h 14.8 km/h 78.2% 0.0 mm
23:19 18.7 °C 15 °C 1019.1 hPa NE 8 km/h 14.8 km/h 79% 0.0 mm
23:24 18.6 °C 14.9 °C 1019.1 hPa NNE 8.4 km/h 13 km/h 79% 0.0 mm
23:29 18.5 °C 14.8 °C 1019.3 hPa NNE 8.4 km/h 13 km/h 79% 0.0 mm
23:34 18.4 °C 14.9 °C 1019.3 hPa NNE 8.4 km/h 13 km/h 79.8% 0.0 mm
23:39 18.4 °C 14.9 °C 1019.3 hPa NNE 8.5 km/h 12.9 km/h 80% 0.0 mm
23:44 18.4 °C 14.9 °C 1019.3 hPa NNE 8.7 km/h 13 km/h 80% 0.0 mm
23:49 18.3 °C 14.8 °C 1019.3 hPa NNE 8.5 km/h 13 km/h 80% 0.0 mm
23:54 18.3 °C 14.8 °C 1019.3 hPa NE 8.4 km/h 12.9 km/h 80% 0.0 mm
23:59 18.3 °C 14.9 °C 1019.4 hPa NNE 7.5 km/h 11.3 km/h 81% 0.0 mm
Murcia-Puente Tocinos, España
Compliments of Weather Underground - 3 mb

La estación de MeteoMurcia.com, publica sus datos en los siguientes proyectos:

Weather Underground PWS IMURCIAP2 Meteoclimatic www.awekas.at

W3Counter
Web Analytics